Time;durP1;ratioP1;P1;durP2;ratioP2;P2;SDS_P1;SDS_P2;PMS_P1;PMS_P2;Temp;Humidity;BMP_temperature;BMP_pressure;BME280_temperature;BME280_humidity;BME280_pressure;Samples;Min_cycle;Max_cycle;Signal;HPM_P1;HPM_P2
2023/12/20 00:01:07;;;;;;;8.20;5.20;;;;;;;8.75;39.51;96034.92;110043;1278;22243;-89
2023/12/20 00:03:41;;;;;;;3.00;2.70;;;;;;;8.71;39.50;96036.36;110019;1278;137856;-89
2023/12/20 00:06:07;;;;;;;3.60;2.70;;;;;;;8.68;39.90;96028.27;110150;1278;22262;-89
2023/12/20 00:08:33;;;;;;;3.80;2.50;;;;;;;8.66;39.84;96031.55;109964;1276;137748;-89
2023/12/20 00:11:01;;;;;;;4.60;2.60;;;;;;;8.62;39.67;96016.95;110303;1266;22215;-89
2023/12/20 00:13:29;;;;;;;3.10;2.40;;;;;;;8.59;39.71;96014.73;109990;1273;138045;-89
2023/12/20 00:15:55;;;;;;;4.20;2.40;;;;;;;8.56;39.57;96012.23;110227;1273;22547;-89
2023/12/20 00:18:21;;;;;;;3.50;2.20;;;;;;;8.57;39.42;96009.55;110213;1278;22901;-88
2023/12/20 00:20:47;;;;;;;2.80;2.40;;;;;;;8.58;39.34;96001.30;109956;1273;139873;-88
2023/12/20 00:23:13;;;;;;;3.60;2.50;;;;;;;8.60;39.53;95993.39;110039;1278;22240;-89
2023/12/20 00:25:39;;;;;;;2.90;1.70;;;;;;;8.60;39.56;95987.30;110159;1276;138157;-88
2023/12/20 00:28:05;;;;;;;2.70;2.20;;;;;;;8.61;39.21;95991.13;110279;1277;22425;-88
2023/12/20 00:30:31;;;;;;;3.80;2.60;;;;;;;8.62;39.48;95979.74;110005;1279;22952;-89
2023/12/20 00:32:57;;;;;;;3.40;2.20;;;;;;;8.64;39.29;95988.86;109835;1280;137496;-89
2023/12/20 00:35:23;;;;;;;3.60;2.60;;;;;;;8.66;38.72;95983.98;110083;1274;23105;-89
2023/12/20 00:37:50;;;;;;;2.70;2.10;;;;;;;8.68;38.69;95986.83;110065;1271;137672;-88
2023/12/20 00:40:16;;;;;;;3.20;2.00;;;;;;;8.71;38.62;95987.86;110113;1277;22349;-88
2023/12/20 00:42:42;;;;;;;4.60;2.70;;;;;;;8.71;39.20;95993.88;110079;1272;22492;-89
2023/12/20 00:45:08;;;;;;;4.20;2.50;;;;;;;8.69;38.77;95993.89;109939;1274;138392;-88
2023/12/20 00:47:34;;;;;;;2.50;1.60;;;;;;;8.69;38.93;95989.35;110220;1278;23167;-88
2023/12/20 00:50:00;;;;;;;3.20;2.50;;;;;;;8.68;38.68;95989.22;109965;1278;136707;-89
2023/12/20 00:52:27;;;;;;;3.90;2.30;;;;;;;8.67;39.01;95980.88;110051;1278;22245;-89
2023/12/20 00:54:53;;;;;;;2.90;1.90;;;;;;;8.68;38.70;95972.39;110209;1270;22415;-89
2023/12/20 00:57:19;;;;;;;2.10;1.70;;;;;;;8.69;37.55;95975.80;110142;1277;137930;-89
2023/12/20 00:59:45;;;;;;;2.60;1.70;;;;;;;8.73;37.68;95977.64;110291;1270;23071;-88
2023/12/20 01:02:11;;;;;;;3.30;2.80;;;;;;;8.76;37.42;95972.16;109963;1278;138198;-88
2023/12/20 01:04:37;;;;;;;17.90;13.20;;;;;;;8.79;37.44;95974.23;110146;1278;22323;-88
2023/12/20 01:07:03;;;;;;;11.10;6.30;;;;;;;8.81;37.46;95961.41;110178;1270;22262;-89
2023/12/20 01:09:30;;;;;;;4.20;3.20;;;;;;;8.81;37.77;95953.73;110157;1270;137528;-88
2023/12/20 01:11:56;;;;;;;3.80;2.80;;;;;;;8.80;37.76;95949.69;110032;1278;22883;-89
2023/12/20 01:14:23;;;;;;;3.00;2.20;;;;;;;8.80;37.67;95935.80;110103;1271;137567;-89
2023/12/20 01:16:49;;;;;;;3.30;2.10;;;;;;;8.80;37.64;95936.29;110064;1278;22965;-89
2023/12/20 01:19:16;;;;;;;3.10;2.20;;;;;;;8.79;37.58;95934.16;110095;1276;22209;-88
2023/12/20 01:21:42;;;;;;;2.90;2.10;;;;;;;8.79;37.30;95930.02;109965;1274;137259;-89
2023/12/20 01:24:08;;;;;;;3.00;2.00;;;;;;;8.80;37.06;95929.84;110100;1277;22475;-89
2023/12/20 01:26:34;;;;;;;2.60;2.10;;;;;;;8.82;37.25;95928.42;110109;1273;137808;-88
2023/12/20 01:29:00;;;;;;;3.30;2.70;;;;;;;8.82;37.27;95921.89;110201;1271;22251;-88
2023/12/20 01:31:27;;;;;;;3.50;2.80;;;;;;;8.80;37.58;95925.89;110218;1278;22341;-89
2023/12/20 01:33:53;;;;;;;4.30;2.90;;;;;;;8.78;37.81;95918.39;110117;1278;23250;-89
2023/12/20 01:36:19;;;;;;;3.30;2.60;;;;;;;8.74;37.37;95908.23;110055;1273;22333;-89
2023/12/20 01:38:45;;;;;;;3.20;2.70;;;;;;;8.73;37.49;95906.54;109971;1277;137379;-89
2023/12/20 01:41:11;;;;;;;3.90;3.00;;;;;;;8.71;37.88;95897.27;110036;1271;22192;-88
2023/12/20 01:43:37;;;;;;;3.50;2.80;;;;;;;8.66;38.27;95891.05;109892;1274;138348;-89
2023/12/20 01:46:03;;;;;;;3.80;2.60;;;;;;;8.61;38.50;95888.23;110198;1271;22193;-88
2023/12/20 01:48:32;;;;;;;3.60;2.50;;;;;;;8.56;38.10;95888.02;110067;1272;22215;-89
2023/12/20 01:50:59;;;;;;;3.60;2.50;;;;;;;8.50;38.43;95894.21;109931;1278;137281;-89
2023/12/20 01:53:25;;;;;;;4.90;3.10;;;;;;;8.45;38.77;95888.27;110015;1276;22268;-89
2023/12/20 01:55:52;;;;;;;4.20;2.50;;;;;;;8.39;38.60;95878.02;109938;1273;137506;-89
2023/12/20 01:58:18;;;;;;;2.60;2.20;;;;;;;8.36;37.88;95873.79;110018;1274;22240;-89
2023/12/20 02:00:45;;;;;;;3.40;2.50;;;;;;;8.35;38.03;95879.33;110089;1278;23003;-89
2023/12/20 02:03:11;;;;;;;3.50;2.50;;;;;;;8.36;37.85;95874.75;109963;1279;137282;-89
2023/12/20 02:05:37;;;;;;;3.10;2.40;;;;;;;8.36;37.84;95870.41;110010;1278;22865;-89
2023/12/20 02:08:04;;;;;;;3.00;2.20;;;;;;;8.37;37.53;95868.23;110194;1278;137901;-89
2023/12/20 02:10:30;;;;;;;2.80;2.10;;;;;;;8.38;37.18;95864.54;110278;1278;22241;-88
2023/12/20 02:13:27;;;;;;;3.20;2.40;;;;;;;8.39;37.24;95861.63;110198;1278;22261;-89
2023/12/20 02:15:54;;;;;;;3.20;2.00;;;;;;;8.38;37.43;95846.93;110207;1270;22219;-89
2023/12/20 02:18:20;;;;;;;2.50;2.10;;;;;;;8.37;37.41;95845.80;110039;1278;22300;-90
2023/12/20 02:20:46;;;;;;;2.90;2.20;;;;;;;8.37;37.43;95851.73;109952;1271;137285;-88
2023/12/20 02:23:12;;;;;;;3.30;2.50;;;;;;;8.36;37.55;95851.84;109990;1272;23232;-89
2023/12/20 02:25:38;;;;;;;2.80;2.40;;;;;;;8.33;37.75;95854.63;109890;1274;137578;-89
2023/12/20 02:28:04;;;;;;;3.90;2.70;;;;;;;8.29;38.10;95858.98;110238;1278;22920;-88
2023/12/20 02:30:30;;;;;;;3.90;2.70;;;;;;;8.26;38.00;95856.27;110047;1278;23243;-89
2023/12/20 02:32:56;;;;;;;3.70;3.10;;;;;;;8.23;38.55;95863.42;109909;1278;137578;-89
2023/12/20 02:35:22;;;;;;;3.60;2.50;;;;;;;8.18;38.52;95841.95;109989;1278;22426;-89
2023/12/20 02:37:48;;;;;;;3.70;2.80;;;;;;;8.15;38.16;95845.31;109911;1274;137393;-89
2023/12/20 02:40:14;;;;;;;3.60;2.50;;;;;;;8.15;38.55;95850.16;110292;1271;23055;-88
2023/12/20 02:42:41;;;;;;;4.00;2.30;;;;;;;8.15;38.61;95838.10;110295;1270;22317;-89
2023/12/20 02:45:07;;;;;;;3.00;2.40;;;;;;;8.14;38.98;95834.39;109977;1278;137615;-88
2023/12/20 02:47:33;;;;;;;3.60;2.60;;;;;;;8.14;38.78;95825.12;110245;1270;22931;-89
2023/12/20 02:49:59;;;;;;;2.80;2.40;;;;;;;8.15;38.66;95827.76;110127;1271;138493;-88
2023/12/20 02:52:25;;;;;;;2.80;1.90;;;;;;;8.16;38.77;95816.58;110107;1278;22897;-88
2023/12/20 02:54:51;;;;;;;2.70;2.00;;;;;;;8.18;38.77;95821.05;110270;1269;22448;-89
2023/12/20 02:57:17;;;;;;;2.40;2.20;;;;;;;8.19;38.80;95813.14;109916;1278;137397;-89
2023/12/20 02:59:44;;;;;;;4.60;2.80;;;;;;;8.21;38.70;95818.54;110034;1270;22256;-88
2023/12/20 03:02:10;;;;;;;2.70;1.90;;;;;;;8.24;38.85;95813.20;109968;1278;138082;-88
2023/12/20 03:04:36;;;;;;;2.80;1.80;;;;;;;8.28;38.65;95815.19;110054;1278;23247;-89
2023/12/20 03:07:02;;;;;;;3.80;2.50;;;;;;;8.31;38.77;95810.47;110270;1274;22210;-89
2023/12/20 03:09:28;;;;;;;3.70;2.60;;;;;;;8.33;38.66;95808.84;110000;1272;137245;-89
2023/12/20 03:11:56;;;;;;;4.50;3.50;;;;;;;8.34;38.91;95805.95;110082;1273;22289;-89
2023/12/20 03:14:22;;;;;;;3.70;2.60;;;;;;;8.34;38.54;95808.61;109948;1274;138878;-88
2023/12/20 03:16:51;;;;;;;2.80;2.10;;;;;;;8.32;38.83;95815.66;110283;1263;22233;-89
2023/12/20 03:19:17;;;;;;;2.50;2.10;;;;;;;8.33;38.90;95814.52;110062;1279;22212;-88
2023/12/20 03:21:43;;;;;;;2.70;2.00;;;;;;;8.35;38.93;95823.00;109961;1277;137495;-89
2023/12/20 03:24:09;;;;;;;5.00;2.60;;;;;;;8.36;38.80;95818.13;110086;1273;22234;-89
2023/12/20 03:26:35;;;;;;;3.10;2.30;;;;;;;8.38;38.67;95822.56;109979;1275;137942;-88
2023/12/20 03:29:02;;;;;;;3.50;2.30;;;;;;;8.39;39.01;95824.33;110046;1279;22873;-89
2023/12/20 03:31:28;;;;;;;3.30;2.30;;;;;;;8.40;39.25;95828.88;110107;1274;137357;-89
2023/12/20 03:33:54;;;;;;;2.90;2.40;;;;;;;8.41;38.94;95824.63;110074;1278;22965;-89
2023/12/20 03:36:20;;;;;;;3.10;2.20;;;;;;;8.42;39.08;95824.48;110099;1272;22878;-88
2023/12/20 03:38:46;;;;;;;2.50;2.20;;;;;;;8.43;39.43;95820.09;109984;1274;137501;-88
2023/12/20 03:41:13;;;;;;;3.60;2.30;;;;;;;8.43;39.67;95819.38;110012;1279;22113;-88
2023/12/20 03:43:39;;;;;;;3.40;2.10;;;;;;;8.43;39.91;95816.48;109934;1278;138441;-89
2023/12/20 03:46:05;;;;;;;4.50;2.40;;;;;;;8.41;40.25;95813.23;110230;1271;22916;-89
2023/12/20 03:48:31;;;;;;;3.30;2.60;;;;;;;8.37;40.76;95816.30;110037;1278;22393;-88
2023/12/20 03:50:58;;;;;;;3.60;2.50;;;;;;;8.34;41.09;95820.16;109958;1274;137848;-88
2023/12/20 03:53:24;;;;;;;3.00;2.10;;;;;;;8.32;41.15;95808.30;110281;1271;22332;-89
2023/12/20 03:55:50;;;;;;;3.10;2.10;;;;;;;8.32;41.15;95815.15;109984;1272;137458;-89
2023/12/20 03:58:16;;;;;;;4.40;3.80;;;;;;;8.33;41.28;95809.09;110223;1278;22449;-89
2023/12/20 04:00:42;;;;;;;10.10;4.40;;;;;;;8.33;41.34;95814.88;110306;1264;22192;-89
2023/12/20 04:03:08;;;;;;;7.40;4.00;;;;;;;8.32;41.53;95815.17;110122;1270;137669;-88
2023/12/20 04:05:34;;;;;;;3.90;2.60;;;;;;;8.32;42.00;95821.95;110090;1272;22222;-88
2023/12/20 04:08:01;;;;;;;4.10;3.00;;;;;;;8.29;42.61;95823.98;110047;1278;137373;-88
2023/12/20 04:10:27;;;;;;;4.30;2.80;;;;;;;8.27;43.28;95826.36;110212;1278;22314;-88
2023/12/20 04:12:55;;;;;;;3.30;2.30;;;;;;;8.24;44.01;95817.41;110242;1271;22215;-89
2023/12/20 04:15:21;;;;;;;2.80;2.20;;;;;;;8.18;44.96;95813.38;109923;1270;137305;-89
2023/12/20 04:17:47;;;;;;;4.40;2.00;;;;;;;8.12;46.15;95817.70;110215;1278;22230;-89
2023/12/20 04:20:13;;;;;;;3.60;2.80;;;;;;;8.04;47.41;95824.73;110175;1272;137192;-89
2023/12/20 04:22:39;;;;;;;4.70;2.70;;;;;;;7.96;47.28;95815.11;110122;1270;23118;-89
2023/12/20 04:25:05;;;;;;;40.30;15.00;;;;;;;7.92;48.59;95809.44;110078;1270;22220;-89
2023/12/20 04:27:31;;;;;;;65.30;28.00;;;;;;;7.87;49.20;95812.60;110129;1276;137739;-88
2023/12/20 04:29:58;;;;;;;31.40;15.30;;;;;;;7.82;50.16;95808.64;110096;1278;23169;-89
2023/12/20 04:32:23;;;;;;;69.30;38.80;;;;;;;7.76;51.56;95810.57;109997;1274;137822;-89
2023/12/20 04:34:49;;;;;;;16.50;10.50;;;;;;;7.70;52.21;95810.10;110080;1276;23076;-89
2023/12/20 04:37:16;;;;;;;43.90;21.60;;;;;;;7.65;53.80;95806.52;110171;1278;22329;-89
2023/12/20 04:39:42;;;;;;;60.70;19.60;;;;;;;7.59;55.65;95809.10;110154;1271;137884;-89
2023/12/20 04:42:08;;;;;;;29.70;11.30;;;;;;;7.54;57.24;95802.43;110127;1270;23005;-89
2023/12/20 04:44:34;;;;;;;11.80;5.20;;;;;;;7.48;58.93;95799.32;110165;1271;137686;-89
2023/12/20 04:47:01;;;;;;;167.70;67.60;;;;;;;7.38;60.55;95801.72;110249;1270;22213;-89
2023/12/20 04:49:27;;;;;;;124.50;49.40;;;;;;;7.30;61.68;95796.05;110038;1273;138294;-88
2023/12/20 04:51:53;;;;;;;149.60;49.90;;;;;;;7.23;62.64;95809.80;110263;1272;22264;-88
2023/12/20 04:54:19;;;;;;;39.90;13.40;;;;;;;7.16;64.50;95803.80;110089;1278;22224;-89
2023/12/20 04:56:45;;;;;;;62.20;18.50;;;;;;;7.09;65.12;95807.80;109984;1273;137598;-88
2023/12/20 04:59:11;;;;;;;67.60;21.20;;;;;;;7.04;65.76;95798.31;110012;1279;22365;-88
2023/12/20 05:01:37;;;;;;;15.00;7.30;;;;;;;7.01;67.37;95794.60;110165;1278;137829;-87
2023/12/20 05:04:03;;;;;;;10.50;5.60;;;;;;;6.92;67.24;95775.45;110299;1271;22240;-88
2023/12/20 05:06:29;;;;;;;8.70;5.50;;;;;;;6.85;68.27;95781.94;110062;1279;22269;-88
2023/12/20 05:08:55;;;;;;;6.30;4.20;;;;;;;6.74;68.80;95782.44;110045;1273;137241;-88
2023/12/20 05:11:21;;;;;;;5.90;4.60;;;;;;;6.66;69.66;95774.28;110078;1278;22266;-88
2023/12/20 05:13:48;;;;;;;25.70;8.30;;;;;;;6.57;70.27;95760.38;109979;1274;137413;-88
2023/12/20 05:16:14;;;;;;;26.10;9.10;;;;;;;6.56;71.47;95758.85;110242;1271;22215;-89
2023/12/20 05:18:40;;;;;;;15.70;6.50;;;;;;;6.54;72.87;95750.33;110286;1271;22208;-88
2023/12/20 05:21:06;;;;;;;6.40;4.00;;;;;;;6.48;74.05;95756.47;110149;1272;138054;-89
2023/12/20 05:23:32;;;;;;;5.90;5.00;;;;;;;6.42;74.07;95762.23;110233;1271;23218;-88
2023/12/20 05:25:59;;;;;;;10.90;7.80;;;;;;;6.41;75.12;95761.46;109956;1273;138739;-88
2023/12/20 05:28:25;;;;;;;10.70;7.50;;;;;;;6.40;76.17;95757.60;110222;1270;22198;-90
2023/12/20 05:30:51;;;;;;;30.50;10.80;;;;;;;6.41;77.02;95759.45;110156;1272;22222;-88
2023/12/20 05:33:17;;;;;;;22.60;8.60;;;;;;;6.45;77.98;95761.10;110156;1274;138333;-88
2023/12/20 05:35:43;;;;;;;8.80;5.60;;;;;;;6.48;78.38;95773.46;110225;1271;22464;-88
2023/12/20 05:38:10;;;;;;;8.20;4.90;;;;;;;6.48;79.26;95762.78;110124;1271;138396;-88
2023/12/20 05:40:36;;;;;;;35.10;13.50;;;;;;;6.46;79.55;95756.66;110005;1276;23156;-89
2023/12/20 05:43:02;;;;;;;60.60;19.00;;;;;;;6.45;80.76;95755.91;110229;1278;22269;-89
2023/12/20 05:45:29;;;;;;;41.40;13.80;;;;;;;6.42;80.89;95761.92;110131;1270;138878;-88
2023/12/20 05:47:55;;;;;;;18.70;6.90;;;;;;;6.41;81.99;95755.08;110259;1271;22311;-89
2023/12/20 05:50:21;;;;;;;26.60;10.20;;;;;;;6.40;81.93;95758.40;110123;1278;138738;-88
2023/12/20 05:52:48;;;;;;;45.50;13.90;;;;;;;6.41;82.48;95753.69;110087;1269;22254;-88
2023/12/20 05:55:14;;;;;;;40.90;13.30;;;;;;;6.45;82.57;95754.81;110112;1274;22528;-89
2023/12/20 05:57:40;;;;;;;6.80;3.50;;;;;;;6.49;83.70;95754.84;109983;1276;138363;-89
2023/12/20 06:00:07;;;;;;;45.60;20.60;;;;;;;6.50;83.41;95755.94;110078;1274;22971;-88
2023/12/20 06:02:33;;;;;;;10.80;5.80;;;;;;;6.50;84.14;95760.88;110042;1277;139343;-88
2023/12/20 06:04:59;;;;;;;18.60;7.00;;;;;;;6.49;84.79;95762.39;110205;1271;22706;-88
2023/12/20 06:07:26;;;;;;;9.60;5.80;;;;;;;6.45;84.67;95770.88;110098;1274;22315;-89
2023/12/20 06:09:52;;;;;;;7.30;5.30;;;;;;;6.35;85.19;95768.55;110056;1274;22186;-89
2023/12/20 06:12:18;;;;;;;18.00;9.80;;;;;;;6.32;85.40;95781.42;110123;1270;22205;-89
2023/12/20 06:14:44;;;;;;;19.80;13.00;;;;;;;6.21;84.29;95777.49;110168;1278;138663;-88
2023/12/20 06:17:10;;;;;;;19.20;11.60;;;;;;;6.09;83.69;95779.63;110109;1278;23119;-89
2023/12/20 06:19:37;;;;;;;31.20;15.90;;;;;;;6.02;83.74;95792.15;110135;1269;141192;-88
2023/12/20 06:22:03;;;;;;;22.80;12.80;;;;;;;5.96;83.72;95801.55;110059;1275;22225;-88
2023/12/20 06:24:29;;;;;;;22.60;11.90;;;;;;;5.85;83.80;95814.27;110238;1272;22257;-89
2023/12/20 06:26:55;;;;;;;20.10;11.90;;;;;;;5.72;83.91;95823.23;110140;1272;138977;-89
2023/12/20 06:29:22;;;;;;;21.20;13.20;;;;;;;5.64;83.90;95828.11;109991;1273;22361;-89
2023/12/20 06:31:49;;;;;;;23.90;11.90;;;;;;;5.61;84.35;95832.25;109917;1278;138762;-89
2023/12/20 06:34:15;;;;;;;28.40;14.10;;;;;;;5.58;84.49;95832.73;110088;1273;22361;-88
2023/12/20 06:36:41;;;;;;;28.40;15.10;;;;;;;5.56;84.58;95832.61;110104;1278;22637;-89
2023/12/20 06:39:08;;;;;;;48.80;21.90;;;;;;;5.49;84.79;95847.59;110169;1270;139387;-88
2023/12/20 06:41:34;;;;;;;41.10;19.20;;;;;;;5.42;84.98;95851.37;110107;1278;22914;-87
2023/12/20 06:44:00;;;;;;;64.50;31.30;;;;;;;5.37;85.41;95855.66;109977;1277;139961;-88
2023/12/20 06:46:26;;;;;;;145.40;74.30;;;;;;;5.29;85.66;95854.33;110070;1274;22263;-88
2023/12/20 06:48:52;;;;;;;156.40;56.40;;;;;;;5.23;85.48;95862.53;110096;1278;22136;-88
2023/12/20 06:51:20;;;;;;;106.60;37.90;;;;;;;5.20;85.96;95869.02;110132;1271;139188;-88
2023/12/20 06:53:46;;;;;;;59.80;28.20;;;;;;;5.17;86.07;95873.65;110139;1272;22189;-89
2023/12/20 06:56:16;;;;;;;73.70;29.70;;;;;;;5.14;86.65;95871.59;109992;1274;138887;-88
2023/12/20 06:58:42;;;;;;;53.40;24.50;;;;;;;5.09;87.21;95868.92;110154;1274;22280;-89
2023/12/20 07:01:15;;;;;;;37.60;18.70;;;;;;;4.99;88.24;95872.06;110111;1267;22422;-88
2023/12/20 07:03:41;;;;;;;24.00;16.80;;;;;;;4.88;88.22;95870.46;109960;1278;139292;-89
2023/12/20 07:06:07;;;;;;;82.70;33.20;;;;;;;4.81;88.93;95867.63;110066;1274;22271;-88
2023/12/20 07:08:36;;;;;;;50.80;20.50;;;;;;;4.77;89.06;95866.08;110143;1272;139034;-89
2023/12/20 07:11:02;;;;;;;30.90;20.20;;;;;;;4.74;90.12;95866.40;110001;1271;22257;-89
2023/12/20 07:13:28;;;;;;;45.80;21.40;;;;;;;4.65;90.52;95863.02;109998;1272;138705;-88
2023/12/20 07:15:54;;;;;;;50.70;20.30;;;;;;;4.61;90.86;95865.60;110019;1277;22328;-88
2023/12/20 07:18:20;;;;;;;39.80;18.10;;;;;;;4.60;91.22;95867.73;110098;1277;22106;-88
2023/12/20 07:20:46;;;;;;;20.30;12.70;;;;;;;4.61;91.50;95863.35;110106;1278;139165;-88
2023/12/20 07:23:13;;;;;;;30.60;14.90;;;;;;;4.62;92.53;95870.48;110264;1273;23059;-88
2023/12/20 07:25:39;;;;;;;16.30;10.50;;;;;;;4.59;94.19;95863.34;109979;1279;143052;-88
2023/12/20 07:28:05;;;;;;;30.60;15.50;;;;;;;4.57;93.84;95866.33;110075;1277;22234;-89
2023/12/20 07:30:31;;;;;;;16.00;10.90;;;;;;;4.58;93.92;95862.32;110236;1271;23520;-89
2023/12/20 07:32:57;;;;;;;32.40;18.40;;;;;;;4.57;94.49;95872.51;110121;1270;139089;-89
2023/12/20 07:35:23;;;;;;;39.30;15.30;;;;;;;4.57;94.47;95878.39;110111;1278;23090;-89
2023/12/20 07:37:49;;;;;;;26.10;12.10;;;;;;;4.56;96.70;95881.52;110022;1276;138654;-89
2023/12/20 07:40:17;;;;;;;14.20;8.60;;;;;;;4.53;97.38;95881.77;110018;1277;22341;-88
2023/12/20 07:42:43;;;;;;;22.90;12.20;;;;;;;4.52;96.12;95882.38;110130;1274;22345;-89
2023/12/20 07:45:10;;;;;;;38.10;15.30;;;;;;;4.53;97.37;95884.38;110164;1272;139154;-89
2023/12/20 07:47:36;;;;;;;28.30;13.20;;;;;;;4.53;95.89;95891.01;110187;1279;22227;-88
2023/12/20 07:50:02;;;;;;;15.40;8.20;;;;;;;4.56;97.11;95889.61;110018;1274;139022;-88
2023/12/20 07:52:29;;;;;;;9.20;7.10;;;;;;;4.55;97.33;95890.36;110106;1279;22289;-89
2023/12/20 07:54:55;;;;;;;8.00;4.90;;;;;;;4.53;96.66;95888.42;110090;1274;22258;-89
2023/12/20 07:57:21;;;;;;;8.70;6.20;;;;;;;4.54;96.69;95887.20;109908;1268;138360;-89
2023/12/20 07:59:47;;;;;;;10.20;7.00;;;;;;;4.53;98.07;95879.27;110099;1268;22213;-88
2023/12/20 08:02:14;;;;;;;44.80;25.10;;;;;;;4.52;97.67;95875.76;109948;1278;138723;-89
2023/12/20 08:04:40;;;;;;;33.80;18.40;;;;;;;4.53;96.83;95875.11;110033;1278;22265;-89
2023/12/20 08:07:06;;;;;;;9.90;5.70;;;;;;;4.55;97.24;95882.14;110036;1278;22210;-88
2023/12/20 08:09:34;;;;;;;10.70;6.90;;;;;;;4.55;98.12;95878.54;109877;1274;139044;-88
2023/12/20 08:12:04;;;;;;;23.90;14.60;;;;;;;4.54;97.11;95879.13;110226;1271;23153;-89
2023/12/20 08:14:30;;;;;;;23.90;15.10;;;;;;;4.53;97.42;95880.39;110048;1271;138749;-88
2023/12/20 08:16:56;;;;;;;28.00;13.90;;;;;;;4.55;97.62;95878.05;110206;1271;22893;-89
2023/12/20 08:19:22;;;;;;;6.40;3.70;;;;;;;4.56;98.22;95871.76;110109;1273;22265;-89
2023/12/20 08:21:48;;;;;;;7.70;4.30;;;;;;;4.53;97.60;95876.34;110039;1270;138220;-89
2023/12/20 08:24:14;;;;;;;9.60;5.60;;;;;;;4.51;98.59;95879.23;110171;1270;23120;-88
2023/12/20 08:26:40;;;;;;;13.30;7.50;;;;;;;4.50;98.11;95872.86;110025;1273;138122;-88
2023/12/20 08:29:06;;;;;;;17.20;7.10;;;;;;;4.50;99.01;95872.98;110077;1278;22151;-88
2023/12/20 08:31:32;;;;;;;7.30;4.10;;;;;;;4.50;98.31;95868.33;109916;1270;138648;-88
2023/12/20 08:33:58;;;;;;;14.50;6.00;;;;;;;4.52;98.09;95868.04;110012;1278;23248;-88
2023/12/20 08:36:24;;;;;;;5.80;3.90;;;;;;;4.53;98.27;95869.61;110163;1274;22309;-88
2023/12/20 08:38:50;;;;;;;10.60;5.00;;;;;;;4.55;98.54;95867.70;110000;1272;139021;-88
2023/12/20 08:41:17;;;;;;;22.30;9.60;;;;;;;4.56;99.12;95867.84;110001;1277;22344;-88
2023/12/20 08:43:43;;;;;;;8.80;4.30;;;;;;;4.55;98.39;95866.85;109972;1275;138465;-89
2023/12/20 08:46:09;;;;;;;7.60;3.60;;;;;;;4.54;98.45;95871.77;110008;1277;22422;-89
2023/12/20 08:48:35;;;;;;;8.90;4.50;;;;;;;4.53;98.99;95872.35;110117;1277;22351;-89
2023/12/20 08:51:01;;;;;;;7.20;3.20;;;;;;;4.50;99.16;95872.27;110102;1278;138743;-89
2023/12/20 08:53:28;;;;;;;17.00;8.60;;;;;;;4.47;99.10;95873.98;110246;1278;22373;-89
2023/12/20 08:55:54;;;;;;;13.60;7.20;;;;;;;4.46;99.18;95877.00;109917;1278;138575;-88
2023/12/20 08:58:20;;;;;;;114.90;32.20;;;;;;;4.42;99.80;95880.86;110088;1277;22395;-88
2023/12/20 09:00:46;;;;;;;34.10;12.10;;;;;;;4.37;100.00;95883.10;110133;1272;22346;-88
2023/12/20 09:03:12;;;;;;;45.90;15.40;;;;;;;4.34;99.60;95885.98;110069;1276;138686;-88
2023/12/20 09:05:38;;;;;;;20.40;7.80;;;;;;;4.35;99.81;95883.67;109995;1278;23693;-89
2023/12/20 09:08:05;;;;;;;9.80;4.30;;;;;;;4.35;99.67;95887.80;110030;1274;138986;-89
2023/12/20 09:10:32;;;;;;;11.30;4.50;;;;;;;4.32;100.00;95895.08;110166;1278;22382;-88
2023/12/20 09:13:02;;;;;;;4.50;2.70;;;;;;;4.27;100.00;95892.02;110090;1274;22277;-89
2023/12/20 09:15:30;;;;;;;3.40;2.50;;;;;;;4.19;100.00;95895.14;110055;1276;138174;-88
2023/12/20 09:17:56;;;;;;;4.60;2.60;;;;;;;4.13;99.99;95894.74;110012;1275;22548;-88
2023/12/20 09:20:23;;;;;;;4.30;2.40;;;;;;;4.11;100.00;95896.83;110093;1272;138451;-88
2023/12/20 09:22:49;;;;;;;5.90;3.10;;;;;;;4.11;100.00;95895.02;110193;1278;23030;-89
2023/12/20 09:25:17;;;;;;;3.20;2.60;;;;;;;4.12;100.00;95897.06;110024;1278;22308;-88
2023/12/20 09:27:43;;;;;;;8.90;4.60;;;;;;;4.10;100.00;95896.14;110020;1275;138327;-88
2023/12/20 09:30:09;;;;;;;8.70;4.40;;;;;;;4.08;100.00;95890.30;110224;1278;22232;-89
2023/12/20 09:32:35;;;;;;;25.20;10.50;;;;;;;4.09;100.00;95894.02;109909;1278;138957;-88
2023/12/20 09:35:02;;;;;;;21.80;10.80;;;;;;;4.06;100.00;95890.02;110215;1278;22484;-89
2023/12/20 09:37:28;;;;;;;24.00;12.20;;;;;;;4.03;100.00;95886.55;110004;1278;139268;-89
2023/12/20 09:39:54;;;;;;;25.80;10.70;;;;;;;4.03;99.97;95887.04;110006;1279;22192;-89
2023/12/20 09:42:40;;;;;;;33.50;13.20;;;;;;;4.04;99.92;95886.08;110114;1277;23080;-89
2023/12/20 09:45:08;;;;;;;20.00;6.70;;;;;;;4.05;100.00;95878.48;109917;1278;139315;-88
2023/12/20 09:47:34;;;;;;;23.20;8.60;;;;;;;4.00;100.00;95878.96;109997;1278;22181;-89
2023/12/20 09:50:02;;;;;;;28.50;11.80;;;;;;;3.97;100.00;95875.48;109952;1274;138824;-88
2023/12/20 09:52:27;;;;;;;39.30;15.00;;;;;;;3.95;99.99;95871.91;110188;1278;23132;-89
2023/12/20 09:54:55;;;;;;;13.90;5.60;;;;;;;3.95;100.00;95871.59;110035;1277;22427;-89
2023/12/20 09:57:21;;;;;;;11.70;4.50;;;;;;;3.95;100.00;95869.89;109961;1278;138605;-88
2023/12/20 09:59:47;;;;;;;19.80;8.30;;;;;;;3.94;100.00;95866.60;109973;1278;22424;-88
2023/12/20 10:02:14;;;;;;;9.10;5.30;;;;;;;3.93;100.00;95862.77;109896;1271;138459;-88
2023/12/20 10:04:50;;;;;;;8.10;3.80;;;;;;;3.88;100.00;95860.99;110011;1278;22994;-89
2023/12/20 10:07:16;;;;;;;6.90;3.50;;;;;;;3.82;100.00;95853.16;110090;1274;22424;-89
2023/12/20 10:09:42;;;;;;;12.10;5.80;;;;;;;3.82;100.00;95854.91;109937;1277;138396;-89
2023/12/20 10:12:08;;;;;;;108.60;55.40;;;;;;;3.80;100.00;95852.32;110029;1270;22432;-89
2023/12/20 10:14:34;;;;;;;23.20;10.60;;;;;;;3.81;100.00;95855.34;110102;1273;139270;-88
2023/12/20 10:17:04;;;;;;;26.80;9.10;;;;;;;3.81;100.00;95855.45;109996;1278;22288;-89
2023/12/20 10:19:31;;;;;;;21.50;8.20;;;;;;;3.82;100.00;95853.52;109975;1277;139071;-88
2023/12/20 10:22:01;;;;;;;13.20;5.80;;;;;;;3.82;100.00;95857.11;109833;1278;260909;-89
2023/12/20 10:24:30;;;;;;;31.40;11.90;;;;;;;3.80;100.00;95859.23;110219;1272;22349;-89
2023/12/20 10:27:08;;;;;;;21.30;9.60;;;;;;;3.78;100.00;95862.47;110123;1276;139512;-89
2023/12/20 10:29:35;;;;;;;28.20;10.90;;;;;;;3.80;100.00;95859.84;110147;1277;22263;-89
2023/12/20 10:32:22;;;;;;;23.00;10.30;;;;;;;3.82;100.00;95860.48;109984;1279;138608;-89
2023/12/20 10:34:48;;;;;;;7.70;4.60;;;;;;;3.83;100.00;95860.11;110227;1271;22190;-88
2023/12/20 10:37:14;;;;;;;7.80;4.90;;;;;;;3.81;100.00;95863.16;109998;1276;22335;-88
2023/12/20 10:39:42;;;;;;;16.40;7.40;;;;;;;3.80;100.00;95863.60;109964;1274;138748;-89
2023/12/20 10:42:09;;;;;;;14.20;6.80;;;;;;;3.80;100.00;95867.58;110004;1279;22345;-89
2023/12/20 10:44:35;;;;;;;10.70;5.10;;;;;;;3.76;100.00;95865.23;110099;1276;138411;-89
2023/12/20 10:47:04;;;;;;;8.40;4.50;;;;;;;3.73;100.00;95861.75;110232;1278;22259;-89
2023/12/20 10:49:30;;;;;;;8.60;4.40;;;;;;;3.72;100.00;95864.27;109977;1277;138597;-88
2023/12/20 10:51:57;;;;;;;13.10;7.10;;;;;;;3.69;100.00;95856.58;110091;1278;22444;-89
2023/12/20 10:54:23;;;;;;;6.20;4.10;;;;;;;3.66;100.00;95855.16;109978;1279;23273;-88
2023/12/20 10:56:49;;;;;;;4.30;3.40;;;;;;;3.64;100.00;95861.52;110046;1274;138022;-89
2023/12/20 10:59:15;;;;;;;7.10;4.00;;;;;;;3.63;100.00;95861.80;110091;1262;22978;-88
2023/12/20 11:01:41;;;;;;;6.50;3.90;;;;;;;3.60;100.00;95867.34;110051;1273;138834;-88
2023/12/20 11:04:09;;;;;;;5.10;3.50;;;;;;;3.59;100.00;95865.52;110119;1277;22455;-88
2023/12/20 11:06:59;;;;;;;5.10;3.10;;;;;;;3.58;100.00;95855.56;110104;1276;22211;-89
2023/12/20 11:09:29;;;;;;;4.40;3.10;;;;;;;3.56;100.00;95860.52;110133;1273;138858;-88
2023/12/20 11:12:18;;;;;;;4.10;3.30;;;;;;;3.55;100.00;95866.61;110019;1278;22243;-89
2023/12/20 11:14:48;;;;;;;4.70;3.50;;;;;;;3.51;100.00;95871.47;109868;1270;138550;-89
2023/12/20 11:17:18;;;;;;;4.50;3.90;;;;;;;3.46;100.00;95870.65;109985;1279;22257;-89
2023/12/20 11:19:53;;;;;;;6.60;3.70;;;;;;;3.45;100.00;95875.02;110070;1278;139028;-89